x

Frying Pan Shoals, Nc Buoy (41013) Wave Buoy

1:50am - Sat 27th Dec 2014 All times are EST. -5 hours from GMT.

  • Sig Wave height 2.0ft
  • Swell Direction
  • Peak Period 13s
  • Average Period 6s
  • Wind
    7mph, 9mph gusts
  • Sea Temp 69°f
  • Air Temp 60°f
  • Sea Pressure 1026.4mb
  • Frying Pan Shoals, Nc Buoy
  • Frying Pan Shoals, Nc Buoy

More Historic Weather Station data

Upgrade to MSW Pro to gain access to the past 30 days of data for over 8000 Wavebouys and Weather Stations around the globe.

Join Pro

Comparision Forecast

View Surf forecast
   
Sat 12/27 1:50am 2ft 13s 6s 7 9 mph 1026.4mb 69f 60f
12:50am 2ft 8s 6s 4 7 mph 1026mb 69f 60f
Fri 12/26 11:50pm 2ft 7s 6s 7 9 mph 1026.6mb 69f 60f
10:50pm 2ft 7s 5s 7 9 mph 1027.4mb 69f 60f
9:50pm 2ft 9s 5s 7 9 mph 1027.5mb 69f 60f
8:50pm 2ft 7s 5s 9 11 mph 1026.9mb 69f 60f
7:50pm 2.5ft 7s 5s 11 13 mph 1026.9mb 69f 59f
6:50pm 2.5ft 7s 5s 11 13 mph 1026.5mb 69f 58f
5:50pm 2.5ft 7s 5s 11 13 mph 1026.4mb 69f 58f
4:50pm 2.5ft 7s 4s 11 13 mph 1026.1mb 69f 58f
3:50pm 2.5ft 7s 4s 11 13 mph 1026.1mb 69f 58f
2:50pm 2.5ft 7s 4s 13 16 mph 1025.6mb 69f 58f
1:50pm 2.5ft 8s 4s 13 18 mph 1025.7mb 69f 58f
12:50pm 2.5ft 7s 4s 11 16 mph 1026.3mb 70f 58f
11:50am 2.5ft 7s 5s 13 16 mph 1026.9mb 70f 58f
10:50am 2.5ft 7s 4s 13 16 mph 1027.8mb 70f 58f
9:50am 2ft 7s 4s 13 18 mph 1027.4mb 70f 59f
8:50am 2.5ft 7s 5s 13 16 mph 1026.9mb 70f 59f
7:50am 2.5ft 7s 5s 9 11 mph 1026.3mb 70f 60f
6:50am 2.5ft 8s 5s 9 11 mph 1025.4mb 70f 59f
5:50am 2.5ft 7s 5s 9 11 mph 1025mb 69f 59f
4:50am 2.5ft 7s 5s 9 13 mph 1025mb 69f 58f
3:50am 3ft 7s 5s 9 13 mph 1025.1mb 69f 58f
2:50am 3ft 8s 5s 9 13 mph 1024.9mb 70f 58f
1:50am 3ft 8s 5s 11 16 mph 1024.4mb 70f 58f
12:50am 3ft 6s 5s 11 16 mph 1024.3mb 70f 58f
Thu 12/25 11:50pm 3.5ft 6s 5s 13 16 mph 1024.4mb 70f 59f
10:50pm 3.5ft 7s 5s 13 18 mph 1024.2mb 70f 59f
9:50pm 3.5ft 7s 5s 13 16 mph 1024.2mb 70f 59f
8:50pm 3.5ft 6s 5s 13 20 mph 1024mb 70f 59f
7:50pm 4ft 7s 5s 9 16 mph 1023.1mb 70f 59f
6:50pm 4ft 8s 5s 11 16 mph 1022.4mb 70f 58f
5:50pm 4.5ft 8s 5s 9 18 mph 1021.5mb 70f 58f
4:50pm 4.5ft 7s 5s 11 16 mph 1021mb 70f 57f
3:50pm 5ft 8s 5s 16 20 mph 1020.5mb 71f 57f
2:50pm 5ft 7s 5s 16 20 mph 1019.7mb 71f 57f
1:50pm 5.5ft 6s 5s 16 22 mph 1019.1mb 71f 56f
12:50pm 6.5ft 6s 5s 18 22 mph 1018.5mb 71f 56f
11:50am 7ft 6s 5s 22 29 mph 1018.4mb 71f 57f
10:50am 7ft 5s 5s 29 34 mph 1018.4mb 71f 58f
9:50am 7ft 5s 5s 25 31 mph 1017.5mb 71f 59f
8:50am 7ft 5s 5s 22 29 mph 1016.5mb 71f 60f
7:50am 7ft 8s 5s 29 34 mph 1014.8mb 71f 62f
6:50am 7ft 8s 5s 29 34 mph 1012.8mb 71f 64f
5:50am 7ft 7s 5s 29 34 mph 1011.2mb 71f 65f
4:50am 7ft 8s 5s 29 36 mph 1010.4mb 71f 68f
3:50am 7ft 7s 5s 22 27 mph 1009.6mb 71f 69f
2:50am 7ft 7s 5s 27 31 mph 1009.2mb 71f 69f
1:50am 7ft 8s 5s 27 34 mph 1008.9mb 71f 69f
12:50am 7ft 8s 6s 27 34 mph 1008.5mb 72f 71f
Wed 12/24 11:50pm 7ft 8s 6s 20 25 mph 1008.4mb 72f 72f
10:50pm 6.5ft 8s 6s 22 27 mph 1008.8mb 71f 72f
9:50pm 7ft 8s 6s 16 20 mph 1009mb 71f 70f
8:50pm 7ft 8s 6s 22 27 mph 1008.8mb 71f 74f
7:50pm 8ft 8s 6s 18 22 mph 1009.4mb 71f 73f
6:50pm 8ft 8s 6s 22 27 mph 1009.6mb 71f 74f
5:50pm 8ft 8s 6s 18 22 mph 1009.7mb 71f 74f
4:50pm 9.5ft 8s 6s 20 25 mph 1009.8mb 71f 74f
3:50pm 10ft 8s 6s 25 29 mph 1009.4mb 71f 74f
2:50pm 11ft 8s 6s 27 36 mph 1009.3mb 71f 75f
1:50pm 10.5ft 8s 6s 29 34 mph 1009.4mb 71f 75f
12:50pm 10.5ft 8s 6s 29 36 mph 1009.6mb 71f 75f
11:50am 9.5ft 7s 6s 27 36 mph 1010.2mb 71f 74f
10:50am 9ft 7s 6s 29 36 mph 1011mb 70f 74f
9:50am 8ft 7s 6s 27 34 mph 1011.5mb 70f 74f
8:50am 7.5ft 7s 5s 22 29 mph 1011.5mb 69f 73f
7:50am 7ft 6s 5s 22 31 mph 1011.7mb 69f 73f
6:50am 7ft 7s 5s 25 29 mph 1011.4mb 69f 73f
5:50am 6ft 6s 5s 20 27 mph 1011.2mb 69f 73f
4:50am 6ft 6s 5s 20 25 mph 1011.3mb 69f 73f
3:50am 5ft 6s 5s 18 20 mph 1012.4mb 70f 73f
2:50am 4.5ft 6s 5s 16 20 mph 1013.7mb 70f 73f
1:50am 4.5ft 6s 5s 11 13 mph 1013.7mb 70f 73f
12:50am 4ft 6s 5s 4
mph
1013.9mb 70f 71f
Tue 12/23 11:50pm 4ft 6s 5s 11 13 mph 1015.1mb 70f 71f
10:50pm 3.5ft 7s 5s 16 20 mph 1015.2mb 69f 71f
9:50pm 3.5ft 7s 5s 9 13 mph 1015mb 69f 71f
8:50pm 4ft 6s 5s 4
mph
1014.8mb 69f 71f
7:50pm 4.5ft 6s 5s 7 9 mph 1015.3mb 69f 71f
6:50pm 4.5ft 6s 5s 4 7 mph 1015.6mb 69f 70f
5:50pm 4.5ft 6s 5s 9 11 mph 1015mb 69f 69f
4:50pm 3.5ft 6s 5s 11 13 mph 1015.3mb 69f 66f
3:50pm 3.5ft 5s 4s 16 18 mph 1015.7mb 69f 64f
2:50pm 3.5ft 5s 5s 13 16 mph 1016mb 69f 65f
1:50pm 3.5ft 5s 5s 9 11 mph 1015.6mb 69f 68f
12:50pm  -   -   -  7 9 mph 1015.8mb 69f 71f
11:50am 3ft 7s 5s 7
mph
1016.6mb 69f 70f
10:50am 3ft 7s 5s 7 9 mph 1016.8mb 69f 69f
9:50am 3ft 9s 5s 9 16 mph 1017.1mb 69f 68f
8:50am 3ft 8s 5s 13 16 mph 1016.5mb 69f 66f